createdAt,value
2023-03-10T00:01:24.466Z,12.43
2023-03-10T00:03:51.843Z,14.07
2023-03-10T00:06:20.828Z,13.27
2023-03-10T00:08:47.926Z,15.30
2023-03-10T00:11:15.027Z,7.10
2023-03-10T00:13:41.704Z,15.37
2023-03-10T00:16:10.242Z,10.55
2023-03-10T00:18:36.853Z,10.90
2023-03-10T00:21:03.455Z,11.80
2023-03-10T00:23:30.734Z,12.20
2023-03-10T00:25:59.502Z,15.30
2023-03-10T00:28:26.903Z,13.02
2023-03-10T00:31:07.027Z,8.65
2023-03-10T00:33:34.784Z,3.33
2023-03-10T00:36:22.545Z,11.10
2023-03-10T00:38:50.338Z,13.27
2023-03-10T00:41:19.567Z,15.32
2023-03-10T00:43:46.282Z,13.00
2023-03-10T00:46:13.284Z,12.25
2023-03-10T00:48:40.873Z,11.30
2023-03-10T00:51:07.948Z,13.60
2023-03-10T00:53:37.994Z,11.23
2023-03-10T00:56:14.067Z,12.90
2023-03-10T00:58:41.447Z,13.20
2023-03-10T01:01:17.506Z,8.32
2023-03-10T01:03:44.557Z,11.67
2023-03-10T01:06:12.291Z,5.70
2023-03-10T01:08:39.006Z,7.05
2023-03-10T01:11:05.766Z,6.20
2023-03-10T01:13:32.328Z,11.52
2023-03-10T01:15:58.941Z,9.03
2023-03-10T01:18:25.621Z,9.05
2023-03-10T01:20:52.207Z,9.13
2023-03-10T01:23:23.528Z,10.27
2023-03-10T01:25:50.578Z,8.77
2023-03-10T01:28:18.064Z,10.30
2023-03-10T01:30:45.018Z,4.60
2023-03-10T01:33:11.808Z,7.00
2023-03-10T01:35:39.228Z,5.25
2023-03-10T01:38:06.240Z,5.80
2023-03-10T01:40:33.031Z,8.67
2023-03-10T01:43:17.937Z,6.53
2023-03-10T01:45:47.378Z,5.43
2023-03-10T01:48:15.471Z,7.25
2023-03-10T01:50:43.514Z,9.10
2023-03-10T01:53:10.495Z,5.27
2023-03-10T01:55:43.910Z,7.85
2023-03-10T01:58:10.641Z,7.38
2023-03-10T02:00:37.184Z,5.75
2023-03-10T02:03:09.494Z,7.80
2023-03-10T02:05:44.245Z,6.30
2023-03-10T02:08:12.860Z,6.85
2023-03-10T02:10:39.496Z,10.75
2023-03-10T02:13:06.573Z,8.07
2023-03-10T02:15:34.008Z,7.13
2023-03-10T02:18:02.275Z,6.73
2023-03-10T02:20:51.782Z,10.70
2023-03-10T02:23:25.906Z,7.78
2023-03-10T02:26:01.339Z,8.40
2023-03-10T02:28:27.906Z,8.77
2023-03-10T02:30:54.903Z,7.50
2023-03-10T02:33:25.942Z,8.32
2023-03-10T02:35:52.533Z,6.00
2023-03-10T02:38:19.112Z,5.85
2023-03-10T02:40:47.179Z,6.22
2023-03-10T02:43:13.614Z,9.37
2023-03-10T02:45:42.272Z,10.13
2023-03-10T02:48:10.494Z,6.00
2023-03-10T02:50:38.693Z,6.90
2023-03-10T02:53:10.867Z,7.50
2023-03-10T02:55:37.620Z,11.00
2023-03-10T02:58:04.166Z,8.55
2023-03-10T03:00:31.030Z,8.07
2023-03-10T03:02:58.034Z,7.00
2023-03-10T03:05:24.548Z,9.00
2023-03-10T03:07:51.057Z,8.43
2023-03-10T03:10:17.772Z,13.80
2023-03-10T03:12:44.298Z,7.63
2023-03-10T03:15:11.327Z,9.07
2023-03-10T03:17:37.921Z,10.90
2023-03-10T03:20:14.473Z,8.57
2023-03-10T03:22:45.155Z,8.18
2023-03-10T03:25:13.974Z,11.27
2023-03-10T03:27:40.828Z,8.30
2023-03-10T03:30:10.682Z,8.25
2023-03-10T03:32:37.447Z,6.40
2023-03-10T03:35:05.627Z,9.88
2023-03-10T03:37:32.194Z,11.30
2023-03-10T03:39:59.048Z,9.48
2023-03-10T03:42:25.560Z,10.50
2023-03-10T03:44:52.370Z,11.47
2023-03-10T03:47:18.936Z,8.95
2023-03-10T03:49:45.479Z,11.75
2023-03-10T03:52:12.011Z,13.73
2023-03-10T03:54:38.739Z,22.98
2023-03-10T03:57:05.245Z,10.57
2023-03-10T03:59:31.828Z,11.27
2023-03-10T04:01:58.428Z,13.45
2023-03-10T04:04:24.934Z,13.00
2023-03-10T04:06:51.503Z,10.07
2023-03-10T04:09:18.277Z,13.57
2023-03-10T04:11:44.909Z,14.23
2023-03-10T04:14:14.523Z,12.55
2023-03-10T04:16:41.045Z,10.20
2023-03-10T04:19:07.756Z,13.25
2023-03-10T04:21:35.332Z,7.23
2023-03-10T04:24:01.965Z,13.00
2023-03-10T04:26:28.885Z,11.05
2023-03-10T04:28:55.762Z,7.10
2023-03-10T04:31:22.388Z,10.27
2023-03-10T04:33:49.034Z,11.87
2023-03-10T04:36:15.871Z,12.90
2023-03-10T04:38:42.500Z,15.65
2023-03-10T04:41:09.620Z,12.15
2023-03-10T04:43:36.748Z,12.60
2023-03-10T04:46:05.153Z,15.87
2023-03-10T04:48:32.289Z,11.85
2023-03-10T04:51:04.004Z,11.82
2023-03-10T04:53:32.590Z,15.00
2023-03-10T04:56:00.476Z,12.00
2023-03-10T04:58:27.128Z,13.60
2023-03-10T05:01:02.929Z,13.23
2023-03-10T05:03:30.240Z,16.75
2023-03-10T05:05:56.929Z,9.95
2023-03-10T05:08:23.417Z,7.78
2023-03-10T05:10:49.979Z,12.50
2023-03-10T05:13:16.513Z,15.55
2023-03-10T05:15:43.318Z,15.57
2023-03-10T05:18:10.864Z,16.25
2023-03-10T05:20:38.057Z,14.90
2023-03-10T05:23:04.639Z,15.43
2023-03-10T05:25:31.282Z,11.93
2023-03-10T05:27:57.926Z,14.40
2023-03-10T05:30:24.451Z,12.13
2023-03-10T05:32:51.056Z,15.48
2023-03-10T05:35:17.717Z,11.93
2023-03-10T05:37:44.397Z,13.75
2023-03-10T05:40:16.298Z,13.98
2023-03-10T05:42:52.016Z,14.80
2023-03-10T05:45:19.102Z,15.30
2023-03-10T05:47:48.786Z,12.17
2023-03-10T05:50:15.496Z,13.75
2023-03-10T05:52:43.544Z,14.63
2023-03-10T05:55:15.585Z,12.80
2023-03-10T05:57:42.118Z,13.40
2023-03-10T06:00:10.443Z,11.87
2023-03-10T06:02:40.630Z,16.83
2023-03-10T06:05:11.303Z,15.98
2023-03-10T06:07:38.500Z,17.27
2023-03-10T06:10:06.109Z,12.13
2023-03-10T06:12:33.210Z,13.20
2023-03-10T06:15:01.211Z,11.02
2023-03-10T06:17:27.725Z,14.65
2023-03-10T06:19:54.242Z,12.80
2023-03-10T06:22:20.788Z,13.48
2023-03-10T06:24:47.334Z,12.03
2023-03-10T06:27:13.844Z,14.77
2023-03-10T06:29:40.412Z,13.13
2023-03-10T06:32:07.949Z,13.82
2023-03-10T06:34:34.493Z,15.25
2023-03-10T06:37:01.058Z,14.60
2023-03-10T06:39:29.018Z,15.95
2023-03-10T06:41:56.923Z,13.63
2023-03-10T06:44:23.494Z,7.43
2023-03-10T06:46:50.016Z,15.20
2023-03-10T06:49:16.544Z,17.00
2023-03-10T06:51:43.100Z,11.65
2023-03-10T06:54:09.603Z,15.07
2023-03-10T06:56:36.162Z,16.90
2023-03-10T06:59:02.752Z,14.63
2023-03-10T07:01:33.748Z,15.70
2023-03-10T07:04:04.121Z,19.58
2023-03-10T07:06:30.852Z,13.75
2023-03-10T07:08:57.629Z,15.70
2023-03-10T07:11:25.529Z,14.27
2023-03-10T07:13:52.428Z,16.37
2023-03-10T07:16:18.986Z,14.18
2023-03-10T07:18:45.650Z,13.93
2023-03-10T07:21:16.529Z,17.10
2023-03-10T07:23:43.071Z,14.93
2023-03-10T07:26:10.153Z,11.47
2023-03-10T07:28:37.881Z,14.68
2023-03-10T07:31:06.582Z,8.60
2023-03-10T07:33:33.623Z,11.48
2023-03-10T07:36:07.691Z,15.68
2023-03-10T07:38:34.807Z,13.53
2023-03-10T07:41:02.142Z,17.67
2023-03-10T07:43:28.735Z,13.95
2023-03-10T07:45:55.591Z,10.57
2023-03-10T07:48:22.144Z,13.48
2023-03-10T07:50:56.865Z,10.97
2023-03-10T07:53:23.593Z,18.52
2023-03-10T07:55:50.136Z,17.88
2023-03-10T07:58:17.085Z,14.98
2023-03-10T08:00:43.679Z,17.30
2023-03-10T08:03:10.223Z,17.63
2023-03-10T08:05:41.556Z,15.77
2023-03-10T08:08:08.411Z,17.45
2023-03-10T08:10:35.561Z,15.35
2023-03-10T08:13:02.205Z,14.85
2023-03-10T08:15:29.023Z,14.33
2023-03-10T08:17:55.591Z,14.75
2023-03-10T08:20:22.361Z,14.48
2023-03-10T08:22:48.894Z,17.73
2023-03-10T08:25:15.463Z,12.50
2023-03-10T08:27:42.200Z,14.20
2023-03-10T08:30:09.219Z,14.23
2023-03-10T08:32:35.988Z,16.45
2023-03-10T08:35:07.090Z,12.60
2023-03-10T08:37:34.014Z,16.23
2023-03-10T08:40:00.654Z,15.50
2023-03-10T08:42:28.618Z,17.60
2023-03-10T08:44:56.805Z,15.48
2023-03-10T08:47:23.529Z,12.85
2023-03-10T08:49:50.125Z,17.23
2023-03-10T08:52:17.078Z,13.77
2023-03-10T08:54:43.795Z,14.90
2023-03-10T08:57:10.362Z,14.25
2023-03-10T08:59:36.935Z,15.10
2023-03-10T09:02:03.605Z,15.48
2023-03-10T09:04:30.241Z,15.20
2023-03-10T09:06:56.767Z,13.40
2023-03-10T09:09:23.261Z,16.73
2023-03-10T09:11:49.834Z,13.80
2023-03-10T09:14:20.178Z,14.07
2023-03-10T09:16:46.902Z,16.70
2023-03-10T09:19:15.884Z,15.38
2023-03-10T09:21:42.670Z,13.57
2023-03-10T09:24:11.881Z,17.10
2023-03-10T09:26:38.460Z,13.57
2023-03-10T09:29:08.148Z,14.53
2023-03-10T09:31:36.274Z,15.57
2023-03-10T09:34:03.524Z,14.82
2023-03-10T09:36:30.226Z,17.70
2023-03-10T09:39:00.044Z,14.40
2023-03-10T09:41:35.215Z,16.70
2023-03-10T09:44:30.823Z,14.13
2023-03-10T09:47:09.680Z,14.05
2023-03-10T09:49:39.770Z,18.08
2023-03-10T09:52:17.023Z,11.70
2023-03-10T09:54:55.985Z,15.30
2023-03-10T09:57:23.636Z,14.18
2023-03-10T09:59:53.931Z,13.60
2023-03-10T10:02:27.631Z,14.27
2023-03-10T10:04:57.517Z,15.43
2023-03-10T10:07:27.870Z,15.37
2023-03-10T10:10:18.665Z,17.80
2023-03-10T10:12:47.002Z,15.05
2023-03-10T10:15:17.083Z,13.10
2023-03-10T10:18:23.973Z,13.70
2023-03-10T10:21:00.732Z,14.90
2023-03-10T10:23:44.974Z,12.38
2023-03-10T10:26:17.308Z,13.65
2023-03-10T10:28:58.381Z,13.52
2023-03-10T10:31:29.992Z,13.07
2023-03-10T10:34:01.869Z,12.80
2023-03-10T10:36:33.392Z,13.88
2023-03-10T10:39:00.362Z,14.90
2023-03-10T10:41:31.922Z,11.98
2023-03-10T10:44:12.972Z,16.48
2023-03-10T10:46:51.667Z,17.90
2023-03-10T10:49:29.426Z,12.93
2023-03-10T10:52:06.486Z,13.27
2023-03-10T10:54:39.019Z,14.20
2023-03-10T10:57:17.392Z,12.18
2023-03-10T10:59:43.915Z,11.13
2023-03-10T11:02:32.409Z,12.80
2023-03-10T11:05:14.511Z,11.52
2023-03-10T11:07:41.058Z,12.15
2023-03-10T11:10:22.109Z,14.70
2023-03-10T11:13:00.528Z,12.37
2023-03-10T11:15:33.096Z,12.50
2023-03-10T11:18:05.685Z,12.55
2023-03-10T11:20:43.985Z,14.10
2023-03-10T11:23:30.162Z,11.00
2023-03-10T11:26:02.496Z,11.23
2023-03-10T11:28:49.190Z,10.57
2023-03-10T11:31:37.742Z,13.30
2023-03-10T11:34:25.772Z,10.27
2023-03-10T11:37:05.803Z,11.80
2023-03-10T11:39:44.031Z,13.53
2023-03-10T11:42:16.672Z,12.18
2023-03-10T11:44:58.197Z,13.02
2023-03-10T11:47:42.850Z,11.73
2023-03-10T11:50:19.975Z,12.32
2023-03-10T11:52:47.682Z,10.87
2023-03-10T11:55:20.686Z,10.77
2023-03-10T11:57:49.482Z,11.88
2023-03-10T12:00:28.294Z,11.30
2023-03-10T12:03:02.234Z,11.38
2023-03-10T12:05:31.342Z,9.50
2023-03-10T12:08:00.865Z,8.88
2023-03-10T12:10:29.031Z,12.27
2023-03-10T12:12:55.734Z,11.02
2023-03-10T12:15:36.957Z,12.30
2023-03-10T12:18:04.729Z,12.37
2023-03-10T12:20:33.163Z,10.35
2023-03-10T12:23:24.206Z,10.57
2023-03-10T12:25:50.733Z,10.82
2023-03-10T12:28:17.244Z,13.88
2023-03-10T12:30:45.749Z,9.97
2023-03-10T12:33:30.746Z,8.13
2023-03-10T12:36:20.076Z,8.27
2023-03-10T12:38:48.646Z,10.68
2023-03-10T12:41:27.021Z,9.43
2023-03-10T12:43:56.503Z,11.23
2023-03-10T12:46:29.252Z,10.93
2023-03-10T12:49:07.119Z,10.68
2023-03-10T12:51:39.898Z,12.98
2023-03-10T12:54:25.047Z,13.52
2023-03-10T12:57:03.397Z,10.93
2023-03-10T13:00:06.462Z,8.70
2023-03-10T13:02:38.791Z,7.80
2023-03-10T13:05:08.177Z,6.70
2023-03-10T13:07:35.357Z,6.05
2023-03-10T13:10:03.450Z,9.80
2023-03-10T13:12:35.711Z,9.07
2023-03-10T13:15:06.060Z,8.05
2023-03-10T13:17:32.983Z,8.30
2023-03-10T13:20:01.297Z,12.30
2023-03-10T13:22:28.382Z,9.10
2023-03-10T13:25:02.402Z,9.13
2023-03-10T13:27:31.493Z,13.23
2023-03-10T13:30:02.454Z,9.60
2023-03-10T13:32:31.549Z,9.27
2023-03-10T13:34:59.172Z,8.80
2023-03-10T13:37:25.886Z,9.02
2023-03-10T13:39:52.793Z,9.18
2023-03-10T13:42:19.299Z,10.05
2023-03-10T13:44:47.388Z,9.23
2023-03-10T13:47:18.840Z,9.10
2023-03-10T13:49:56.470Z,9.95
2023-03-10T13:52:25.766Z,10.07
2023-03-10T13:54:52.469Z,9.15
2023-03-10T13:57:35.726Z,10.57
2023-03-10T14:00:08.364Z,10.77
2023-03-10T14:02:39.936Z,10.52
2023-03-10T14:05:08.650Z,10.82
2023-03-10T14:07:39.277Z,11.60
2023-03-10T14:10:10.198Z,10.18
2023-03-10T14:12:44.315Z,10.17
2023-03-10T14:15:20.130Z,11.93
2023-03-10T14:17:47.426Z,11.20
2023-03-10T14:20:37.658Z,12.75
2023-03-10T14:23:19.547Z,11.07
2023-03-10T14:25:47.086Z,11.80
2023-03-10T14:30:43.908Z,13.77
2023-03-10T14:33:15.350Z,13.40
2023-03-10T14:35:42.629Z,14.15
2023-03-10T14:38:09.375Z,13.37
2023-03-10T14:41:06.597Z,12.15
2023-03-10T14:43:33.728Z,12.48
2023-03-10T14:46:07.417Z,12.38
2023-03-10T14:48:36.470Z,12.55
2023-03-10T14:51:03.239Z,11.20
2023-03-10T14:53:31.716Z,14.35
2023-03-10T14:56:01.554Z,10.65
2023-03-10T14:58:33.692Z,12.23
2023-03-10T15:01:00.733Z,10.15
2023-03-10T15:03:27.960Z,10.50
2023-03-10T15:05:54.624Z,9.65
2023-03-10T15:08:22.171Z,10.45
2023-03-10T15:10:50.757Z,12.27
2023-03-10T15:13:20.025Z,9.65
2023-03-10T15:15:49.077Z,9.03
2023-03-10T15:18:18.583Z,10.70
2023-03-10T15:20:45.152Z,9.68
2023-03-10T15:23:15.592Z,10.63
2023-03-10T15:25:45.640Z,10.88
2023-03-10T15:28:12.561Z,10.37
2023-03-10T15:30:39.034Z,14.07
2023-03-10T15:33:05.634Z,11.90
2023-03-10T15:35:32.544Z,13.38
2023-03-10T15:37:59.209Z,11.25
2023-03-10T15:40:27.680Z,13.80
2023-03-10T15:42:56.213Z,9.98
2023-03-10T15:45:24.031Z,12.88
2023-03-10T15:47:50.752Z,12.38
2023-03-10T15:50:19.223Z,12.13
2023-03-10T15:52:47.376Z,12.47
2023-03-10T15:55:15.027Z,10.25
2023-03-10T15:57:41.976Z,11.27
2023-03-10T16:00:09.632Z,12.70
2023-03-10T16:02:36.140Z,10.70
2023-03-10T16:05:02.678Z,13.40
2023-03-10T16:07:29.174Z,11.98
2023-03-10T16:09:55.723Z,12.48
2023-03-10T16:12:24.519Z,11.80
2023-03-10T16:14:51.705Z,12.63
2023-03-10T16:17:18.543Z,12.90
2023-03-10T16:19:45.016Z,11.05
2023-03-10T16:22:11.508Z,15.02
2023-03-10T16:24:38.039Z,12.45
2023-03-10T16:27:04.597Z,13.02
2023-03-10T16:29:31.339Z,13.60
2023-03-10T16:31:58.000Z,11.85
2023-03-10T16:34:24.477Z,19.33
2023-03-10T16:36:51.034Z,15.35
2023-03-10T16:39:20.656Z,14.27
2023-03-10T16:41:47.701Z,13.23
2023-03-10T16:44:15.386Z,14.60
2023-03-10T16:46:41.985Z,12.75
2023-03-10T16:49:14.061Z,14.68
2023-03-10T16:51:42.273Z,12.35
2023-03-10T16:54:11.728Z,12.77
2023-03-10T16:56:43.451Z,13.70
2023-03-10T16:59:16.346Z,13.15
2023-03-10T17:01:44.399Z,14.50
2023-03-10T17:04:11.452Z,13.10
2023-03-10T17:06:38.616Z,13.50
2023-03-10T17:09:07.706Z,13.35
2023-03-10T17:11:39.603Z,14.20
2023-03-10T17:14:14.185Z,15.10
2023-03-10T17:16:41.373Z,14.43
2023-03-10T17:19:14.594Z,11.43
2023-03-10T17:21:45.819Z,14.52
2023-03-10T17:24:13.939Z,14.63
2023-03-10T17:26:40.737Z,15.27
2023-03-10T17:29:07.492Z,15.02
2023-03-10T17:31:35.751Z,18.07
2023-03-10T17:34:06.741Z,14.32
2023-03-10T17:36:33.573Z,18.08
2023-03-10T17:39:01.969Z,14.63
2023-03-10T17:41:30.202Z,13.13
2023-03-10T17:43:57.048Z,16.67
2023-03-10T17:46:26.400Z,14.45
2023-03-10T17:48:53.173Z,16.27
2023-03-10T17:51:23.714Z,14.80
2023-03-10T17:53:51.475Z,15.48
2023-03-10T17:56:18.414Z,17.00
2023-03-10T17:58:45.426Z,19.05
2023-03-10T18:01:19.192Z,14.32
2023-03-10T18:03:48.148Z,15.57
2023-03-10T18:06:31.856Z,16.05
2023-03-10T18:09:01.146Z,19.17
2023-03-10T18:11:28.417Z,17.00
2023-03-10T18:13:55.128Z,17.80
2023-03-10T18:16:24.290Z,16.67
2023-03-10T18:18:50.989Z,20.33
2023-03-10T18:21:18.659Z,18.97
2023-03-10T18:23:46.111Z,18.00
2023-03-10T18:26:15.404Z,17.67
2023-03-10T18:28:42.443Z,16.23
2023-03-10T18:31:11.463Z,14.27
2023-03-10T18:33:38.028Z,15.70
2023-03-10T18:36:06.294Z,14.57
2023-03-10T18:38:33.031Z,14.38
2023-03-10T18:41:01.272Z,15.07
2023-03-10T18:43:29.331Z,15.68
2023-03-10T18:45:56.411Z,13.43
2023-03-10T18:48:27.032Z,14.63
2023-03-10T18:50:57.039Z,15.23
2023-03-10T18:53:24.149Z,15.05
2023-03-10T18:55:50.652Z,15.05
2023-03-10T18:58:17.223Z,16.63
2023-03-10T19:00:43.723Z,14.50
2023-03-10T19:03:13.639Z,17.52
2023-03-10T19:05:41.012Z,12.32
2023-03-10T19:08:07.861Z,15.30
2023-03-10T19:10:36.036Z,13.93
2023-03-10T19:13:03.096Z,14.35
2023-03-10T19:15:29.694Z,15.32
2023-03-10T19:17:56.479Z,15.85
2023-03-10T19:20:23.056Z,16.95
2023-03-10T19:22:51.318Z,15.17
2023-03-10T19:25:19.436Z,15.00
2023-03-10T19:27:46.146Z,17.33
2023-03-10T19:30:19.720Z,16.60
2023-03-10T19:32:47.334Z,15.73
2023-03-10T19:35:15.532Z,15.03
2023-03-10T19:37:44.915Z,16.42
2023-03-10T19:40:20.054Z,17.23
2023-03-10T19:42:47.463Z,17.83
2023-03-10T19:45:16.072Z,14.85
2023-03-10T19:47:43.003Z,16.80
2023-03-10T19:50:12.363Z,16.05
2023-03-10T19:52:46.067Z,16.45
2023-03-10T19:55:19.950Z,15.38
2023-03-10T19:57:54.174Z,14.43
2023-03-10T20:00:27.603Z,16.57
2023-03-10T20:02:54.943Z,16.38
2023-03-10T20:05:25.323Z,16.27
2023-03-10T20:08:02.536Z,16.42
2023-03-10T20:10:29.171Z,15.40
2023-03-10T20:12:56.098Z,16.63
2023-03-10T20:15:22.824Z,15.18
2023-03-10T20:17:49.426Z,17.38
2023-03-10T20:20:24.964Z,18.45
2023-03-10T20:22:52.961Z,19.85
2023-03-10T20:25:21.689Z,23.90
2023-03-10T20:27:50.359Z,18.25
2023-03-10T20:30:20.741Z,20.52
2023-03-10T20:32:47.464Z,20.15
2023-03-10T20:35:14.611Z,19.38
2023-03-10T20:37:41.975Z,18.33
2023-03-10T20:40:13.098Z,17.52
2023-03-10T20:42:40.196Z,20.83
2023-03-10T20:45:08.898Z,21.25
2023-03-10T20:47:35.625Z,18.10
2023-03-10T20:50:03.892Z,21.00
2023-03-10T20:52:36.040Z,21.15
2023-03-10T20:55:04.026Z,20.10
2023-03-10T20:57:32.199Z,19.08
2023-03-10T20:59:58.877Z,19.65
2023-03-10T21:02:25.374Z,18.73
2023-03-10T21:04:52.365Z,21.80
2023-03-10T21:07:18.863Z,18.90
2023-03-10T21:09:45.328Z,21.75
2023-03-10T21:12:13.660Z,20.98
2023-03-10T21:14:40.209Z,27.03
2023-03-10T21:17:06.912Z,22.52
2023-03-10T21:19:33.414Z,24.35
2023-03-10T21:22:02.165Z,23.15
2023-03-10T21:24:29.721Z,23.33
2023-03-10T21:26:56.210Z,25.27
2023-03-10T21:29:22.757Z,22.50
2023-03-10T21:31:49.220Z,20.95
2023-03-10T21:34:15.758Z,22.90
2023-03-10T21:36:42.504Z,20.92
2023-03-10T21:39:09.211Z,26.87
2023-03-10T21:41:36.058Z,23.23
2023-03-10T21:44:03.259Z,27.23
2023-03-10T21:46:29.880Z,28.42
2023-03-10T21:48:56.854Z,25.45
2023-03-10T21:51:24.965Z,21.33
2023-03-10T21:53:53.739Z,21.45
2023-03-10T21:56:22.119Z,20.10
2023-03-10T21:58:49.572Z,21.25
2023-03-10T22:01:17.644Z,18.25
2023-03-10T22:03:44.548Z,22.87
2023-03-10T22:06:11.422Z,21.70
2023-03-10T22:08:38.189Z,21.67
2023-03-10T22:11:08.968Z,22.38
2023-03-10T22:13:36.699Z,22.65
2023-03-10T22:16:04.757Z,23.50
2023-03-10T22:18:31.448Z,25.45
2023-03-10T22:20:58.269Z,27.10
2023-03-10T22:23:24.814Z,26.50
2023-03-10T22:25:51.614Z,28.33
2023-03-10T22:28:18.116Z,25.60
2023-03-10T22:30:44.562Z,26.08
2023-03-10T22:33:11.021Z,31.63
2023-03-10T22:35:38.034Z,33.30
2023-03-10T22:38:05.201Z,29.40
2023-03-10T22:40:32.231Z,29.20
2023-03-10T22:42:58.886Z,34.08
2023-03-10T22:45:28.093Z,26.48
2023-03-10T22:48:00.890Z,29.20
2023-03-10T22:50:32.558Z,29.80
2023-03-10T22:53:00.741Z,29.13
2023-03-10T22:55:29.220Z,28.17
2023-03-10T22:57:56.773Z,26.60
2023-03-10T23:00:23.911Z,28.67
2023-03-10T23:02:50.791Z,28.98
2023-03-10T23:05:17.815Z,25.97
2023-03-10T23:07:44.692Z,25.55
2023-03-10T23:10:17.420Z,27.63
2023-03-10T23:12:46.633Z,26.90
2023-03-10T23:15:26.215Z,25.17
2023-03-10T23:17:54.312Z,33.47
2023-03-10T23:20:24.222Z,27.85
2023-03-10T23:22:50.802Z,25.65
2023-03-10T23:25:19.861Z,28.65
2023-03-10T23:27:46.593Z,26.33
2023-03-10T23:30:15.065Z,26.10
2023-03-10T23:32:46.569Z,22.50
2023-03-10T23:35:15.332Z,20.98
2023-03-10T23:37:41.894Z,25.55
2023-03-10T23:40:11.414Z,19.88
2023-03-10T23:42:38.750Z,22.27
2023-03-10T23:45:07.156Z,21.65
2023-03-10T23:47:34.671Z,21.42
2023-03-10T23:50:02.122Z,21.83
2023-03-10T23:52:28.645Z,19.40
2023-03-10T23:54:55.613Z,21.90
2023-03-10T23:57:22.182Z,23.27
2023-03-10T23:59:48.783Z,22.33
